Time;durP1;ratioP1;P1;durP2;ratioP2;P2;SDS_P1;SDS_P2;PMS_P1;PMS_P2;Temp;Humidity;BMP_temperature;BMP_pressure;BME280_temperature;BME280_humidity;BME280_pressure;Samples;Min_cycle;Max_cycle;Signal;HPM_P1;HPM_P2
2021/12/31 00:01:25;;;;;;;7.22;5.03;;;;;;;7.57;100.00;98827.65;1691816;85;21512;-41
2021/12/31 00:03:52;;;;;;;6.78;5.22;;;;;;;7.60;100.00;98827.00;1707018;84;20990;-41
2021/12/31 00:06:17;;;;;;;6.67;4.63;;;;;;;7.62;100.00;98819.08;1691972;84;21006;-41
2021/12/31 00:08:43;;;;;;;9.25;6.50;;;;;;;7.62;100.00;98822.56;1706903;84;21030;-41
2021/12/31 00:11:09;;;;;;;8.15;5.22;;;;;;;7.66;100.00;98826.71;1691755;83;20991;-42
2021/12/31 00:13:35;;;;;;;8.18;5.45;;;;;;;7.69;100.00;98827.87;1706899;83;21033;-42
2021/12/31 00:16:00;;;;;;;7.42;5.53;;;;;;;7.72;100.00;98828.63;1691639;85;21144;-41
2021/12/31 00:18:26;;;;;;;7.72;5.55;;;;;;;7.79;100.00;98837.88;1706956;84;21046;-41
2021/12/31 00:20:52;;;;;;;7.40;5.90;;;;;;;7.82;100.00;98833.77;1691623;84;21021;-41
2021/12/31 00:23:23;;;;;;;12.28;6.30;;;;;;;7.81;100.00;98824.23;1706913;84;21003;-41
2021/12/31 00:25:46;;;;;;;8.20;6.42;;;;;;;7.85;100.00;98831.00;1690881;84;20995;-42
2021/12/31 00:28:12;;;;;;;11.80;6.95;;;;;;;7.90;100.00;98826.38;1706895;83;21010;-41
2021/12/31 00:30:39;;;;;;;9.55;6.67;;;;;;;7.89;100.00;98827.29;1691953;85;21007;-41
2021/12/31 00:33:07;;;;;;;9.68;7.12;;;;;;;7.94;100.00;98826.59;1707057;84;21002;-41
2021/12/31 00:35:33;;;;;;;9.58;7.05;;;;;;;7.98;100.00;98821.57;1691762;85;21006;-41
2021/12/31 00:37:59;;;;;;;12.82;6.90;;;;;;;7.97;100.00;98815.13;1706900;83;21778;-41
2021/12/31 00:40:26;;;;;;;10.78;7.97;;;;;;;8.01;100.00;98814.04;1691630;85;20975;-42
2021/12/31 00:42:52;;;;;;;11.38;7.33;;;;;;;8.07;100.00;98813.70;1706993;84;21454;-41
2021/12/31 00:45:20;;;;;;;9.43;7.03;;;;;;;8.10;100.00;98814.02;1691732;85;20980;-42
2021/12/31 00:47:47;;;;;;;9.30;7.75;;;;;;;8.17;100.00;98823.25;1704134;83;21027;-41
2021/12/31 00:50:14;;;;;;;11.45;7.12;;;;;;;8.18;100.00;98828.85;1680049;85;21010;-41
2021/12/31 00:52:41;;;;;;;10.48;7.50;;;;;;;8.23;100.00;98829.46;1680188;85;21002;-41
2021/12/31 00:55:09;;;;;;;9.37;7.13;;;;;;;8.25;100.00;98835.46;1680187;85;21015;-41
2021/12/31 00:57:36;;;;;;;8.43;6.90;;;;;;;8.22;100.00;98832.99;1679996;85;21492;-41
2021/12/31 01:00:05;;;;;;;10.08;6.67;;;;;;;8.24;100.00;98831.13;1686990;84;21051;-41
2021/12/31 01:02:31;;;;;;;9.05;6.78;;;;;;;8.22;100.00;98832.55;1697345;84;21038;-41
2021/12/31 01:04:57;;;;;;;9.88;7.10;;;;;;;8.27;100.00;98835.75;1679989;85;20991;-41
2021/12/31 01:07:23;;;;;;;10.03;6.85;;;;;;;8.26;100.00;98832.77;1679967;84;21002;-42
2021/12/31 01:09:49;;;;;;;12.35;7.95;;;;;;;8.29;100.00;98832.22;1680097;85;21010;-41
2021/12/31 01:12:15;;;;;;;11.88;8.10;;;;;;;8.31;100.00;98839.52;1680078;84;21488;-41
2021/12/31 01:14:56;;;;;;;17.35;8.70;;;;;;;8.36;100.00;98840.97;1679993;85;21054;-41
2021/12/31 01:17:24;;;;;;;11.78;8.10;;;;;;;8.34;100.00;98836.75;1679339;84;20967;-41
2021/12/31 01:19:46;;;;;;;11.30;8.65;;;;;;;8.35;100.00;98846.28;1679123;84;21500;-41
2021/12/31 01:22:25;;;;;;;12.28;9.18;;;;;;;8.36;100.00;98844.06;1679919;84;21050;-42
2021/12/31 01:24:50;;;;;;;14.05;9.88;;;;;;;8.38;100.00;98839.11;1679821;85;20983;-41
2021/12/31 01:27:16;;;;;;;12.25;8.08;;;;;;;8.39;100.00;98843.91;1679991;84;21059;-41
2021/12/31 01:29:43;;;;;;;14.58;10.20;;;;;;;8.41;100.00;98844.67;1680046;85;21015;-42
2021/12/31 01:32:10;;;;;;;18.00;11.43;;;;;;;8.38;100.00;98840.42;1680010;85;20991;-41
2021/12/31 01:34:36;;;;;;;16.65;11.78;;;;;;;8.38;100.00;98843.52;1680135;85;21003;-41
2021/12/31 01:37:03;;;;;;;16.87;11.55;;;;;;;8.42;100.00;98839.82;1680133;85;21006;-41
2021/12/31 01:39:29;;;;;;;17.42;11.63;;;;;;;8.41;100.00;98847.29;1680032;85;20987;-41
2021/12/31 01:41:58;;;;;;;16.15;11.53;;;;;;;8.45;100.00;98850.16;1680075;84;21030;-41
2021/12/31 01:44:33;;;;;;;18.23;11.30;;;;;;;8.44;100.00;98858.48;1679993;85;21006;-41
2021/12/31 01:47:00;;;;;;;19.05;12.37;;;;;;;8.47;100.00;98853.53;1679020;85;21594;-41
2021/12/31 01:49:34;;;;;;;14.33;11.10;;;;;;;8.52;100.00;98862.47;1692377;82;21038;-41
2021/12/31 01:51:57;;;;;;;15.15;12.53;;;;;;;8.48;100.00;98850.44;1648958;87;21013;-41
2021/12/31 01:54:22;;;;;;;13.85;11.08;;;;;;;8.48;100.00;98851.75;1695253;85;20995;-41
2021/12/31 01:56:48;;;;;;;11.30;9.68;;;;;;;8.50;100.00;98846.83;1649715;86;21051;-41
2021/12/31 01:59:16;;;;;;;14.00;10.43;;;;;;;8.49;100.00;98856.08;1649846;87;20967;-42
2021/12/31 02:01:43;;;;;;;14.45;11.65;;;;;;;8.51;100.00;98860.77;1695334;83;20999;-41
2021/12/31 02:04:08;;;;;;;13.90;10.95;;;;;;;8.52;100.00;98865.09;1649729;85;21054;-41
2021/12/31 02:06:34;;;;;;;13.85;10.05;;;;;;;8.51;100.00;98863.38;1695374;85;20999;-41
2021/12/31 02:09:04;;;;;;;14.07;9.90;;;;;;;8.50;100.00;98861.71;1649831;87;21511;-41
2021/12/31 02:11:30;;;;;;;13.45;9.68;;;;;;;8.57;100.00;98868.31;1649757;87;21503;-41
2021/12/31 02:13:57;;;;;;;16.82;10.93;;;;;;;8.57;100.00;98873.56;1678584;85;21127;-41
2021/12/31 02:16:24;;;;;;;16.62;11.88;;;;;;;8.52;100.00;98865.09;1671297;85;20979;-41
2021/12/31 02:18:50;;;;;;;13.18;10.30;;;;;;;8.58;100.00;98879.16;1649725;87;21051;-41
2021/12/31 02:21:17;;;;;;;16.50;10.65;;;;;;;8.59;100.00;98884.80;1695598;85;21469;-42
2021/12/31 02:23:45;;;;;;;12.75;10.63;;;;;;;8.56;100.00;98888.41;1649792;87;21022;-41
2021/12/31 02:26:12;;;;;;;15.40;10.82;;;;;;;8.56;100.00;98887.11;1695110;85;21452;-41
2021/12/31 02:28:39;;;;;;;13.28;11.03;;;;;;;8.57;100.00;98889.28;1649788;87;21054;-42
2021/12/31 02:31:06;;;;;;;14.20;11.18;;;;;;;8.63;100.00;98881.91;1695346;85;21086;-41
2021/12/31 02:33:34;;;;;;;14.90;10.55;;;;;;;8.57;100.00;98880.11;1649892;87;21027;-41
2021/12/31 02:36:06;;;;;;;12.07;10.25;;;;;;;8.60;100.00;98878.61;1695376;85;21054;-42
2021/12/31 02:38:32;;;;;;;10.88;9.08;;;;;;;8.62;100.00;98877.62;1649752;87;21058;-41
2021/12/31 02:40:58;;;;;;;11.28;9.15;;;;;;;8.64;100.00;98882.75;1659909;81;21108;-41
2021/12/31 02:43:24;;;;;;;12.23;9.65;;;;;;;8.59;100.00;98870.39;1692319;84;21020;-42
2021/12/31 02:45:50;;;;;;;12.10;9.95;;;;;;;8.59;100.00;98867.77;1691116;84;21009;-40
2021/12/31 02:48:27;;;;;;;14.28;11.03;;;;;;;8.61;100.00;98864.13;1660863;86;20986;-41
2021/12/31 02:50:56;;;;;;;11.53;10.33;;;;;;;8.64;100.00;98863.09;1689813;85;21014;-40
2021/12/31 02:53:38;;;;;;;12.35;10.72;;;;;;;8.67;100.00;98871.28;1689845;85;21001;-40
2021/12/31 02:56:08;;;;;;;13.43;10.65;;;;;;;8.68;100.00;98867.27;1690048;85;21057;-40
2021/12/31 02:58:36;;;;;;;14.35;12.15;;;;;;;8.70;100.00;98873.27;1689472;84;21005;-40
2021/12/31 03:01:04;;;;;;;15.32;12.03;;;;;;;8.74;100.00;98875.25;1690138;85;21026;-40
2021/12/31 03:03:33;;;;;;;15.48;12.33;;;;;;;8.70;100.00;98878.51;1690153;83;20979;-40
2021/12/31 03:05:59;;;;;;;13.60;12.10;;;;;;;8.72;100.00;98877.95;1689943;85;21045;-41
2021/12/31 03:08:31;;;;;;;14.53;12.28;;;;;;;8.70;100.00;98882.44;1660815;86;21022;-40
2021/12/31 03:11:00;;;;;;;14.75;12.50;;;;;;;8.70;100.00;98880.30;1703976;84;20991;-40
2021/12/31 03:13:26;;;;;;;18.12;12.00;;;;;;;8.68;100.00;98884.30;1660850;86;21013;-41
2021/12/31 03:15:53;;;;;;;13.48;11.68;;;;;;;8.72;100.00;98889.75;1670285;85;21010;-41
2021/12/31 03:18:20;;;;;;;19.55;13.38;;;;;;;8.74;100.00;98886.58;1690343;83;21487;-43
2021/12/31 03:21:05;;;;;;;17.90;13.05;;;;;;;8.75;100.00;98902.70;1689984;83;20978;-40
2021/12/31 03:23:29;;;;;;;16.30;12.82;;;;;;;8.74;100.00;98901.47;1703892;84;21031;-40
2021/12/31 03:25:55;;;;;;;;;;;;;;;8.71;100.00;98891.98;1663394;85;21029;-41
2021/12/31 03:28:21;;;;;;;18.40;12.65;;;;;;;8.72;100.00;98888.44;1704591;84;20105;-40
2021/12/31 03:30:48;;;;;;;15.40;13.13;;;;;;;8.69;100.00;98885.98;1704570;84;21015;-40
2021/12/31 03:33:15;;;;;;;18.20;14.33;;;;;;;8.71;100.00;98879.34;1704820;84;21039;-41
2021/12/31 03:35:41;;;;;;;17.70;13.93;;;;;;;8.69;100.00;98867.63;1704791;84;21047;-41
2021/12/31 03:38:07;;;;;;;14.85;12.53;;;;;;;8.69;100.00;98854.52;1704214;84;21488;-41
2021/12/31 03:40:33;;;;;;;19.23;14.40;;;;;;;8.69;100.00;98850.59;1704526;83;21500;-42
2021/12/31 03:42:59;;;;;;;20.57;12.95;;;;;;;8.71;100.00;98855.28;1662279;85;21546;-41
2021/12/31 03:45:25;;;;;;;15.78;11.97;;;;;;;8.73;100.00;98852.14;1708934;84;20968;-41
2021/12/31 03:47:51;;;;;;;16.32;12.53;;;;;;;8.73;100.00;98863.06;1705224;83;21039;-41
2021/12/31 03:50:17;;;;;;;14.47;11.75;;;;;;;8.72;100.00;98856.15;1704074;83;20992;-42
2021/12/31 03:52:43;;;;;;;15.35;12.28;;;;;;;8.72;100.00;98859.61;1704093;83;21055;-42
2021/12/31 03:55:10;;;;;;;15.38;12.20;;;;;;;8.75;100.00;98862.07;1703989;84;21003;-41
2021/12/31 03:57:37;;;;;;;13.53;12.10;;;;;;;8.79;100.00;98863.59;1704213;83;21449;-41
2021/12/31 04:00:06;;;;;;;14.25;12.25;;;;;;;8.78;100.00;98865.81;1704224;84;21038;-41
2021/12/31 04:02:32;;;;;;;17.32;12.53;;;;;;;8.80;100.00;98860.05;1704088;84;21418;-41
2021/12/31 04:04:58;;;;;;;12.60;10.78;;;;;;;8.81;100.00;98861.72;1704136;84;21842;-41
2021/12/31 04:07:24;;;;;;;14.43;11.33;;;;;;;8.86;100.00;98854.93;1703967;84;20995;-41
2021/12/31 04:09:50;;;;;;;12.82;11.12;;;;;;;8.87;100.00;98850.52;1704039;84;20996;-41
2021/12/31 04:12:16;;;;;;;12.63;10.80;;;;;;;8.89;100.00;98853.90;1703988;84;20992;-41
2021/12/31 04:14:42;;;;;;;13.25;11.75;;;;;;;8.89;100.00;98862.61;1704004;84;21000;-41
2021/12/31 04:17:08;;;;;;;13.98;11.33;;;;;;;8.92;100.00;98871.63;1704066;84;20999;-42
2021/12/31 04:19:33;;;;;;;15.53;12.35;;;;;;;8.91;100.00;98875.63;1704177;84;21473;-41
2021/12/31 04:21:59;;;;;;;13.60;10.95;;;;;;;8.94;100.00;98876.31;1704038;84;20972;-41
2021/12/31 04:26:54;;;;;;;16.55;12.30;;;;;;;8.97;100.00;98880.09;1704171;84;20990;-41
2021/12/31 04:29:20;;;;;;;13.45;11.65;;;;;;;8.94;100.00;98882.03;1704106;84;21035;-41
2021/12/31 04:31:46;;;;;;;14.00;11.08;;;;;;;8.92;100.00;98873.41;1704210;84;21468;-41
2021/12/31 04:34:12;;;;;;;13.95;11.08;;;;;;;8.91;100.00;98869.08;1704225;83;21027;-41
2021/12/31 04:36:38;;;;;;;13.30;10.32;;;;;;;8.90;100.00;98880.52;1704130;84;20991;-41
2021/12/31 04:39:03;;;;;;;14.87;11.85;;;;;;;8.86;100.00;98864.55;1704168;84;20988;-41
2021/12/31 04:41:29;;;;;;;16.60;10.88;;;;;;;8.89;100.00;98867.84;1704178;83;20991;-41
2021/12/31 04:43:55;;;;;;;16.23;11.28;;;;;;;8.94;100.00;98870.23;1704062;82;21027;-41
2021/12/31 04:46:21;;;;;;;13.98;11.35;;;;;;;8.91;100.00;98869.91;1704225;84;20968;-41
2021/12/31 04:48:47;;;;;;;12.35;10.35;;;;;;;8.92;100.00;98868.16;1704198;83;21000;-41
2021/12/31 04:51:12;;;;;;;11.70;9.88;;;;;;;8.93;100.00;98866.77;1704152;84;21019;-42
2021/12/31 04:53:38;;;;;;;12.25;9.73;;;;;;;8.92;100.00;98866.84;1704186;83;21047;-41
2021/12/31 04:56:04;;;;;;;14.85;10.32;;;;;;;8.98;100.00;98871.74;1704139;84;21043;-41
2021/12/31 04:58:30;;;;;;;11.90;10.68;;;;;;;8.98;100.00;98869.12;1704164;83;20996;-40
2021/12/31 05:00:55;;;;;;;12.88;11.25;;;;;;;8.99;100.00;98869.52;1704181;83;20999;-41
2021/12/31 05:03:21;;;;;;;13.35;11.65;;;;;;;9.00;100.00;98872.06;1704266;84;20999;-41
2021/12/31 05:05:47;;;;;;;15.08;11.85;;;;;;;9.03;100.00;98873.66;1704121;83;20999;-41
2021/12/31 05:08:12;;;;;;;18.23;12.35;;;;;;;9.03;100.00;98862.69;1704266;84;21595;-42
2021/12/31 05:10:38;;;;;;;13.22;11.43;;;;;;;9.03;100.00;98868.41;1704239;84;21497;-41
2021/12/31 05:13:05;;;;;;;23.73;13.22;;;;;;;9.06;100.00;98870.87;1704210;83;21465;-41
2021/12/31 05:15:35;;;;;;;14.73;12.07;;;;;;;9.07;100.00;98868.61;1704348;84;21027;-41
2021/12/31 05:18:00;;;;;;;15.78;12.70;;;;;;;9.12;100.00;98869.20;1704459;82;21387;-41
2021/12/31 05:20:26;;;;;;;13.75;10.08;;;;;;;9.11;100.00;98865.34;1704109;84;21409;-41
2021/12/31 05:22:53;;;;;;;9.80;8.50;;;;;;;9.13;100.00;98864.34;1704078;83;21000;-41
2021/12/31 05:25:21;;;;;;;9.37;8.47;;;;;;;9.09;100.00;98875.92;1704478;84;21495;-41
2021/12/31 05:27:47;;;;;;;8.50;7.67;;;;;;;9.12;100.00;98870.52;1704168;84;21000;-41
2021/12/31 05:30:12;;;;;;;7.90;7.17;;;;;;;9.16;100.00;98868.09;1704241;83;21836;-41
2021/12/31 05:32:38;;;;;;;8.23;7.15;;;;;;;9.21;100.00;98863.91;1704157;84;21500;-41
2021/12/31 05:35:05;;;;;;;8.43;7.40;;;;;;;9.19;100.00;98866.61;1704072;83;20998;-42
2021/12/31 05:37:31;;;;;;;9.85;6.28;;;;;;;9.25;100.00;98868.05;1704258;84;20988;-41
2021/12/31 05:39:57;;;;;;;8.00;6.83;;;;;;;9.22;100.00;98869.08;1704205;84;21626;-42
2021/12/31 05:42:23;;;;;;;6.75;5.85;;;;;;;9.25;100.00;98871.14;1704764;82;21035;-41
2021/12/31 05:44:48;;;;;;;6.90;6.00;;;;;;;9.23;100.00;98862.88;1693085;83;20978;-41
2021/12/31 05:47:14;;;;;;;6.55;5.85;;;;;;;9.26;100.00;98873.69;1727859;83;21034;-41
2021/12/31 05:49:41;;;;;;;6.70;6.10;;;;;;;9.30;100.00;98873.05;1727844;83;20997;-42
2021/12/31 05:52:07;;;;;;;6.45;5.83;;;;;;;9.29;100.00;98871.34;1727939;83;21001;-41
2021/12/31 05:54:33;;;;;;;7.70;6.90;;;;;;;9.28;100.00;98878.38;1728120;83;20994;-41
2021/12/31 05:56:59;;;;;;;6.47;5.87;;;;;;;9.33;100.00;98879.41;1727807;83;21026;-41
2021/12/31 05:59:25;;;;;;;7.35;6.65;;;;;;;9.32;100.00;98869.86;1727854;83;20986;-41
2021/12/31 06:01:51;;;;;;;6.60;5.97;;;;;;;9.35;100.00;98865.73;1727889;83;21037;-41
2021/12/31 06:04:17;;;;;;;6.10;5.50;;;;;;;9.32;100.00;98870.70;1727843;83;21030;-41
2021/12/31 06:06:44;;;;;;;6.47;5.85;;;;;;;9.35;100.00;98866.59;1727831;82;20967;-42
2021/12/31 06:09:11;;;;;;;6.30;5.70;;;;;;;9.34;100.00;98867.99;1728095;82;20963;-41
2021/12/31 06:11:38;;;;;;;6.55;5.70;;;;;;;9.35;100.00;98864.42;1727918;83;20998;-42
2021/12/31 06:14:05;;;;;;;6.05;5.45;;;;;;;9.35;100.00;98865.73;1727860;83;20984;-41
2021/12/31 06:16:41;;;;;;;5.60;5.10;;;;;;;9.38;100.00;98862.94;1728035;82;21475;-42
2021/12/31 06:19:05;;;;;;;6.58;4.70;;;;;;;9.36;100.00;98870.06;1727119;82;21006;-41
2021/12/31 06:21:39;;;;;;;;;;;;;;;9.39;100.00;98867.27;1730438;83;21006;-42
2021/12/31 06:24:06;;;;;;;5.17;4.22;;;;;;;9.41;100.00;98870.17;1727840;82;20112;-41
2021/12/31 06:26:32;;;;;;;4.40;4.00;;;;;;;9.44;100.00;98857.36;1727975;82;21401;-41
2021/12/31 06:28:58;;;;;;;4.53;4.20;;;;;;;9.43;100.00;98864.84;1727853;83;21030;-41
2021/12/31 06:31:26;;;;;;;4.70;4.30;;;;;;;9.44;100.00;98867.86;1727888;83;21478;-42
2021/12/31 06:33:51;;;;;;;;;;;;;;;9.45;100.00;98870.84;1730536;83;21104;-42
2021/12/31 06:36:19;;;;;;;3.80;3.50;;;;;;;9.38;100.00;98874.27;1727799;83;20144;-42
2021/12/31 06:38:45;;;;;;;3.72;3.50;;;;;;;9.42;100.00;98873.63;1727978;83;20994;-41
2021/12/31 06:41:11;;;;;;;5.10;3.55;;;;;;;9.40;100.00;98878.13;1727912;82;21665;-41
2021/12/31 06:43:37;;;;;;;3.50;3.30;;;;;;;9.46;100.00;98879.11;1715547;81;21012;-42
2021/12/31 06:46:03;;;;;;;3.35;3.15;;;;;;;9.41;100.00;98874.58;1706820;84;21516;-41
2021/12/31 06:48:29;;;;;;;3.30;3.00;;;;;;;9.46;100.00;98876.48;1706869;83;20983;-41
2021/12/31 06:50:55;;;;;;;3.58;3.27;;;;;;;9.45;100.00;98873.94;1706860;83;20952;-41
2021/12/31 06:53:20;;;;;;;2.98;2.70;;;;;;;9.45;100.00;98866.06;1706820;84;21003;-42
2021/12/31 06:55:46;;;;;;;4.25;3.62;;;;;;;9.49;100.00;98873.66;1706824;83;20991;-42
2021/12/31 06:58:12;;;;;;;2.30;2.20;;;;;;;9.49;100.00;98880.22;1706819;84;20996;-42
2021/12/31 07:00:38;;;;;;;3.37;2.67;;;;;;;9.49;100.00;98885.47;1706820;83;21043;-43
2021/12/31 07:03:11;;;;;;;3.95;2.10;;;;;;;9.53;100.00;98887.45;1706825;84;21374;-42
2021/12/31 07:05:42;;;;;;;2.10;2.00;;;;;;;9.52;100.00;98883.99;1707047;84;21000;-42
2021/12/31 07:08:09;;;;;;;3.10;2.40;;;;;;;9.50;100.00;98877.98;1706873;84;21031;-42
2021/12/31 07:10:35;;;;;;;2.80;2.60;;;;;;;9.55;100.00;98894.33;1706872;83;21004;-40
2021/12/31 07:13:11;;;;;;;2.20;2.00;;;;;;;9.51;100.00;98887.54;1706799;83;20980;-40
2021/12/31 07:15:35;;;;;;;3.85;2.95;;;;;;;9.50;100.00;98884.55;1706562;84;20974;-40
2021/12/31 07:18:00;;;;;;;2.50;2.30;;;;;;;9.52;100.00;98885.78;1706833;84;21003;-41
2021/12/31 07:20:26;;;;;;;2.42;2.20;;;;;;;9.56;100.00;98889.91;1706836;84;21040;-41
2021/12/31 07:22:52;;;;;;;2.62;2.17;;;;;;;9.56;100.00;98899.94;1706848;83;21011;-41
2021/12/31 07:25:17;;;;;;;2.60;2.40;;;;;;;9.56;100.00;98889.91;1706845;83;21000;-41
2021/12/31 07:27:43;;;;;;;5.53;2.40;;;;;;;9.60;100.00;98890.97;1706938;84;21520;-41
2021/12/31 07:30:12;;;;;;;2.85;2.62;;;;;;;9.61;100.00;98887.40;1706837;83;21480;-42
2021/12/31 07:32:38;;;;;;;2.77;2.58;;;;;;;9.67;100.00;98886.67;1706816;84;21544;-42
2021/12/31 07:35:06;;;;;;;3.15;2.85;;;;;;;9.64;100.00;98889.46;1706969;83;21026;-42
2021/12/31 07:37:31;;;;;;;;;;;;;;;9.65;100.00;98886.75;1709403;84;21429;-42
2021/12/31 07:40:03;;;;;;;3.92;3.62;;;;;;;9.64;100.00;98886.39;1706838;83;20105;-42
2021/12/31 07:42:28;;;;;;;4.50;4.10;;;;;;;9.66;100.00;98896.78;1706563;84;21573;-42
2021/12/31 07:44:54;;;;;;;4.95;4.55;;;;;;;9.66;100.00;98891.53;1704840;83;21863;-40
2021/12/31 07:47:19;;;;;;;6.72;5.15;;;;;;;9.68;100.00;98892.28;1704786;83;21399;-40
2021/12/31 07:49:45;;;;;;;6.45;5.85;;;;;;;9.69;100.00;98889.57;1704904;84;21063;-41
2021/12/31 07:52:11;;;;;;;6.40;5.80;;;;;;;9.73;100.00;98900.74;1704826;83;21495;-40
2021/12/31 07:54:37;;;;;;;8.80;6.17;;;;;;;9.75;100.00;98893.62;1704866;84;21472;-43
2021/12/31 07:57:03;;;;;;;9.25;7.65;;;;;;;9.76;100.00;98895.33;1704855;83;21523;-41
2021/12/31 07:59:29;;;;;;;11.70;8.95;;;;;;;9.72;100.00;98901.22;1704829;84;21001;-40
2021/12/31 08:01:55;;;;;;;8.55;7.72;;;;;;;9.76;100.00;98904.52;1705012;83;20998;-40
2021/12/31 08:04:20;;;;;;;7.97;7.15;;;;;;;9.75;100.00;98910.69;1704889;83;20997;-41
2021/12/31 08:06:46;;;;;;;8.38;7.40;;;;;;;9.77;100.00;98908.84;1704957;84;21823;-41
2021/12/31 08:09:12;;;;;;;10.85;7.45;;;;;;;9.76;100.00;98905.35;1704996;83;21496;-42
2021/12/31 08:11:39;;;;;;;8.75;7.83;;;;;;;9.81;100.00;98910.35;1704948;83;21492;-41
2021/12/31 08:14:05;;;;;;;10.72;8.50;;;;;;;9.83;100.00;98913.73;1705125;84;21490;-42
2021/12/31 08:16:31;;;;;;;8.43;7.65;;;;;;;9.87;100.00;98911.30;1704916;83;20998;-41
2021/12/31 08:18:57;;;;;;;8.15;7.45;;;;;;;9.87;100.00;98909.98;1704954;84;20976;-41
2021/12/31 08:21:23;;;;;;;8.75;7.90;;;;;;;9.88;100.00;98913.00;1704963;84;21002;-41
2021/12/31 08:23:48;;;;;;;12.55;9.18;;;;;;;9.92;100.00;98918.44;1704891;84;21002;-41
2021/12/31 08:26:14;;;;;;;11.30;8.60;;;;;;;9.93;100.00;98915.34;1705019;84;20967;-41
2021/12/31 08:28:40;;;;;;;7.95;7.25;;;;;;;9.94;100.00;98923.12;1704947;83;21022;-41
2021/12/31 08:31:06;;;;;;;7.37;6.20;;;;;;;9.94;100.00;98917.88;1705027;84;21038;-41
2021/12/31 08:33:33;;;;;;;6.87;5.83;;;;;;;9.95;100.00;98919.58;1705013;84;21022;-40
2021/12/31 08:35:58;;;;;;;7.30;6.60;;;;;;;9.97;100.00;98915.08;1704896;84;21452;-41
2021/12/31 08:38:25;;;;;;;11.88;8.08;;;;;;;10.05;100.00;98926.92;1704876;84;21030;-41
2021/12/31 08:40:52;;;;;;;20.43;13.13;;;;;;;10.06;100.00;98932.09;1704926;84;20975;-41
2021/12/31 08:43:18;;;;;;;;;;;;;;;10.10;100.00;98924.88;1707778;83;21015;-41
2021/12/31 08:45:44;;;;;;;6.97;5.92;;;;;;;10.05;100.00;98922.98;1706979;84;20414;-41
2021/12/31 08:48:09;;;;;;;10.38;5.50;;;;;;;10.09;100.00;98932.36;1706907;83;20999;-41
2021/12/31 08:50:36;;;;;;;7.12;6.42;;;;;;;10.06;100.00;98928.59;1706932;83;20956;-41
2021/12/31 08:53:03;;;;;;;6.80;6.10;;;;;;;10.03;100.00;98924.38;1706865;83;20995;-42
2021/12/31 08:55:29;;;;;;;;;;;;;;;10.02;100.00;98933.66;1709527;83;21528;-42
2021/12/31 08:57:55;;;;;;;6.47;5.87;;;;;;;10.01;100.00;98930.67;1706947;83;20138;-42
2021/12/31 09:00:21;;;;;;;6.40;5.80;;;;;;;10.06;100.00;98933.84;1706948;83;21453;-41
2021/12/31 09:02:50;;;;;;;7.28;6.20;;;;;;;10.05;100.00;98938.74;1706896;84;21019;-41
2021/12/31 09:05:15;;;;;;;6.37;5.80;;;;;;;10.08;100.00;98938.57;1706740;84;20968;-40
2021/12/31 09:07:40;;;;;;;10.70;8.28;;;;;;;10.11;100.00;98931.80;1706858;83;21507;-41
2021/12/31 09:10:08;;;;;;;8.85;6.37;;;;;;;10.08;100.00;98942.52;1706985;83;21042;-41
2021/12/31 09:12:34;;;;;;;;;;;;;;;10.08;100.00;98942.52;1709445;84;21043;-41
2021/12/31 09:15:00;;;;;;;8.50;7.35;;;;;;;10.05;100.00;98937.43;1706844;83;20107;-40
2021/12/31 09:17:25;;;;;;;8.65;6.53;;;;;;;10.11;100.00;98934.42;1706893;83;20996;-41
2021/12/31 09:19:51;;;;;;;11.85;7.50;;;;;;;10.13;100.00;98928.16;1706897;83;21003;-41
2021/12/31 09:22:17;;;;;;;9.15;7.62;;;;;;;10.14;100.00;98931.16;1706830;84;21035;-41
2021/12/31 09:24:43;;;;;;;8.05;7.05;;;;;;;10.16;100.00;98928.44;1706888;84;21038;-41
2021/12/31 09:27:10;;;;;;;8.88;7.25;;;;;;;10.19;100.00;98933.52;1706874;84;21003;-41
2021/12/31 09:29:35;;;;;;;9.88;8.20;;;;;;;10.19;100.00;98929.10;1706880;83;21007;-41
2021/12/31 09:32:01;;;;;;;8.90;8.00;;;;;;;10.21;100.00;98934.27;1706904;84;20995;-41
2021/12/31 09:34:27;;;;;;;10.23;8.28;;;;;;;10.22;100.00;98930.69;1706878;83;21450;-41
2021/12/31 09:36:53;;;;;;;10.32;8.05;;;;;;;10.26;100.00;98926.97;1706811;84;20999;-41
2021/12/31 09:39:19;;;;;;;9.05;7.62;;;;;;;10.25;100.00;98934.46;1706874;83;20996;-42
2021/12/31 09:41:45;;;;;;;8.35;7.50;;;;;;;10.28;100.00;98939.54;1707037;83;20999;-41
2021/12/31 09:44:14;;;;;;;9.80;7.85;;;;;;;10.23;100.00;98948.16;1706792;83;21067;-41
2021/12/31 09:46:39;;;;;;;8.53;7.20;;;;;;;10.24;100.00;98931.47;1706656;84;20948;-41
2021/12/31 09:49:04;;;;;;;10.82;7.83;;;;;;;10.28;100.00;98942.17;1706840;84;20998;-41
2021/12/31 09:51:31;;;;;;;10.28;8.20;;;;;;;10.26;100.00;98942.73;1706944;83;21552;-41
2021/12/31 09:53:59;;;;;;;8.63;7.70;;;;;;;10.28;100.00;98944.80;1707077;84;21496;-42
2021/12/31 09:56:26;;;;;;;;;;;;;;;10.28;100.00;98932.97;1709367;84;20975;-42
2021/12/31 09:58:51;;;;;;;10.15;7.87;;;;;;;10.25;100.00;98935.77;1706978;84;20110;-42
2021/12/31 10:01:17;;;;;;;12.13;7.92;;;;;;;10.27;100.00;98935.21;1706834;84;21003;-42
2021/12/31 10:03:55;;;;;;;9.10;7.40;;;;;;;10.26;100.00;98943.18;1706849;83;20995;-41
2021/12/31 10:06:21;;;;;;;13.58;8.15;;;;;;;10.26;100.00;98926.97;1706107;84;21020;-41
2021/12/31 10:08:48;;;;;;;10.45;7.35;;;;;;;10.27;100.00;98923.38;1706840;84;21450;-41
2021/12/31 10:11:21;;;;;;;10.78;7.62;;;;;;;10.27;100.00;98926.01;1706893;83;20968;-41
2021/12/31 10:14:00;;;;;;;9.03;7.25;;;;;;;10.27;100.00;98923.38;1705975;84;21450;-41
2021/12/31 10:16:39;;;;;;;12.30;9.68;;;;;;;10.26;100.00;98924.34;1706783;84;21448;-42
2021/12/31 10:19:15;;;;;;;10.08;7.37;;;;;;;10.26;100.00;98928.72;1706859;84;21508;-41
2021/12/31 10:21:46;;;;;;;18.60;11.78;;;;;;;10.26;100.00;98928.72;1706917;84;21476;-41
2021/12/31 10:24:35;;;;;;;9.95;7.72;;;;;;;10.25;100.00;98921.31;1706879;84;20960;-41
2021/12/31 10:27:12;;;;;;;11.18;7.70;;;;;;;10.25;100.00;98934.46;1706872;84;20987;-42
2021/12/31 10:29:57;;;;;;;12.82;7.25;;;;;;;10.24;100.00;98926.22;1706640;83;20957;-42
2021/12/31 10:32:26;;;;;;;10.85;8.88;;;;;;;10.20;100.00;98927.31;1706870;84;21184;-41
2021/12/31 10:34:52;;;;;;;10.60;6.97;;;;;;;10.23;100.00;98925.83;1706835;84;21035;-41
2021/12/31 10:37:25;;;;;;;7.25;6.55;;;;;;;10.22;100.00;98931.16;1706905;83;21485;-42
2021/12/31 10:40:01;;;;;;;7.03;6.10;;;;;;;10.28;100.00;98925.09;1706690;84;20976;-41
2021/12/31 10:42:31;;;;;;;6.70;6.00;;;;;;;10.25;100.00;98916.06;1707057;83;21011;-41
2021/12/31 10:44:57;;;;;;;9.40;6.10;;;;;;;10.33;100.00;98920.44;1720511;83;21006;-42
2021/12/31 10:47:32;;;;;;;10.23;6.40;;;;;;;10.32;100.00;98917.90;1728016;82;20967;-41
2021/12/31 10:50:05;;;;;;;6.90;5.90;;;;;;;10.28;100.00;98917.20;1727788;83;21010;-41
2021/12/31 10:52:46;;;;;;;7.58;5.97;;;;;;;10.33;100.00;98909.92;1727835;83;21489;-41
2021/12/31 10:57:43;;;;;;;7.00;5.97;;;;;;;10.38;100.00;98906.52;1727833;82;20982;-41
2021/12/31 11:00:11;;;;;;;9.40;5.40;;;;;;;10.38;100.00;98897.32;1727967;82;20989;-42
2021/12/31 11:02:37;;;;;;;7.53;5.00;;;;;;;10.39;100.00;98896.87;1727923;83;20990;-41
2021/12/31 11:05:05;;;;;;;7.65;4.87;;;;;;;10.40;100.00;98893.29;1727976;83;21511;-42
2021/12/31 11:07:34;;;;;;;9.48;5.50;;;;;;;10.43;100.00;98886.54;1727460;82;21881;-42
2021/12/31 11:10:04;;;;;;;7.40;5.45;;;;;;;10.46;100.00;98884.18;1728032;83;21037;-41
2021/12/31 11:12:31;;;;;;;7.22;4.90;;;;;;;10.49;100.00;98893.20;1727876;82;20989;-42
2021/12/31 11:14:57;;;;;;;7.45;5.55;;;;;;;10.49;100.00;98889.27;1728028;83;21830;-42
2021/12/31 11:17:24;;;;;;;12.65;7.15;;;;;;;10.48;100.00;98883.64;1728204;82;21001;-41
2021/12/31 11:19:51;;;;;;;9.90;6.62;;;;;;;10.50;100.00;98888.34;1728021;83;20963;-42
2021/12/31 11:22:27;;;;;;;9.13;5.80;;;;;;;10.53;100.00;98884.18;1728027;83;21484;-41
2021/12/31 11:24:53;;;;;;;7.60;5.17;;;;;;;10.54;100.00;98888.52;1727887;82;20994;-42
2021/12/31 11:27:37;;;;;;;5.83;4.95;;;;;;;10.57;100.00;98875.19;1727957;82;20987;-41
2021/12/31 11:30:04;;;;;;;7.33;5.60;;;;;;;10.51;100.00;98877.73;1727889;82;20982;-41
2021/12/31 11:33:09;;;;;;;6.45;5.03;;;;;;;10.56;100.00;98881.37;1727999;83;21007;-42